createdAt,value
2022-08-17T00:03:22.415Z,17.75
2022-08-17T00:08:37.488Z,16.58
2022-08-17T00:13:50.752Z,16.93
2022-08-17T00:19:08.347Z,14.13
2022-08-17T00:24:14.315Z,14.75
2022-08-17T00:29:20.543Z,14.18
2022-08-17T00:34:27.988Z,13.40
2022-08-17T00:39:33.917Z,13.80
2022-08-17T00:44:40.319Z,12.70
2022-08-17T00:49:45.746Z,15.05
2022-08-17T00:54:56.022Z,15.73
2022-08-17T01:00:15.320Z,14.38
2022-08-17T01:05:26.131Z,17.08
2022-08-17T01:10:59.735Z,16.52
2022-08-17T01:16:19.143Z,14.32
2022-08-17T01:21:36.500Z,15.57
2022-08-17T01:26:44.268Z,13.27
2022-08-17T01:31:55.661Z,11.15
2022-08-17T01:37:01.680Z,9.68
2022-08-17T01:42:33.732Z,9.70
2022-08-17T01:47:39.663Z,7.43
2022-08-17T01:52:49.572Z,10.38
2022-08-17T01:57:55.570Z,9.90
2022-08-17T02:03:02.044Z,10.40
2022-08-17T02:08:08.771Z,9.45
2022-08-17T02:13:25.568Z,10.18
2022-08-17T02:23:43.164Z,9.70
2022-08-17T02:28:48.451Z,10.13
2022-08-17T02:44:39.035Z,8.80
2022-08-17T02:49:55.619Z,8.13
2022-08-17T02:55:01.411Z,8.50
2022-08-17T03:00:14.700Z,7.85
2022-08-17T03:05:23.275Z,8.43
2022-08-17T03:10:31.240Z,8.80
2022-08-17T03:15:37.784Z,7.97
2022-08-17T03:20:49.898Z,7.90
2022-08-17T03:25:56.854Z,8.55
2022-08-17T03:31:03.071Z,10.15
2022-08-17T03:36:09.487Z,6.65
2022-08-17T03:41:15.539Z,7.78
2022-08-17T03:46:39.171Z,7.18
2022-08-17T03:52:03.508Z,7.95
2022-08-17T03:57:11.969Z,8.23
2022-08-17T04:02:26.664Z,7.90
2022-08-17T04:07:33.646Z,9.07
2022-08-17T04:12:56.178Z,7.93
2022-08-17T04:18:03.653Z,8.75
2022-08-17T04:23:12.865Z,11.40
2022-08-17T04:28:21.157Z,9.40
2022-08-17T04:33:29.224Z,8.40
2022-08-17T04:38:38.069Z,8.82
2022-08-17T04:43:45.626Z,9.13
2022-08-17T04:48:54.460Z,9.52
2022-08-17T04:54:12.979Z,8.90
2022-08-17T04:59:23.595Z,10.95
2022-08-17T05:04:35.118Z,9.52
2022-08-17T05:09:41.099Z,9.45
2022-08-17T05:14:46.591Z,8.18
2022-08-17T05:19:52.803Z,15.27
2022-08-17T05:24:58.907Z,9.05
2022-08-17T05:30:07.916Z,11.43
2022-08-17T05:35:14.211Z,11.43
2022-08-17T05:40:21.423Z,11.43
2022-08-17T05:45:54.324Z,11.15
2022-08-17T05:51:28.994Z,10.77
2022-08-17T05:56:53.179Z,11.40
2022-08-17T06:02:20.513Z,11.00
2022-08-17T06:07:38.628Z,11.13
2022-08-17T06:12:53.625Z,11.60
2022-08-17T06:18:07.495Z,11.13
2022-08-17T06:23:18.824Z,12.35
2022-08-17T06:28:36.242Z,14.23
2022-08-17T06:33:43.246Z,14.05
2022-08-17T06:39:07.434Z,12.35
2022-08-17T06:44:43.134Z,11.55
2022-08-17T06:50:18.354Z,13.00
2022-08-17T06:55:58.195Z,13.15
2022-08-17T07:01:28.337Z,12.88
2022-08-17T07:06:46.652Z,14.80
2022-08-17T07:12:05.380Z,10.40
2022-08-17T07:17:16.736Z,11.05
2022-08-17T07:22:59.815Z,6.75
2022-08-17T07:28:09.379Z,15.25
2022-08-17T07:33:21.457Z,12.80
2022-08-17T07:44:21.744Z,11.38
2022-08-17T07:49:38.629Z,9.82
2022-08-17T07:54:45.343Z,10.25
2022-08-17T08:00:03.295Z,7.78
2022-08-17T08:05:48.730Z,13.70
2022-08-17T08:11:11.204Z,7.47
2022-08-17T08:16:21.614Z,12.98
2022-08-17T08:21:45.826Z,11.55
2022-08-17T08:27:09.724Z,7.07
2022-08-17T08:32:26.804Z,7.63
2022-08-17T08:38:12.954Z,6.10
2022-08-17T08:43:52.991Z,8.27
2022-08-17T08:49:19.204Z,9.05
2022-08-17T09:00:12.384Z,11.50
2022-08-17T09:05:50.109Z,10.70
2022-08-17T09:11:01.707Z,10.25
2022-08-17T09:16:25.408Z,11.93
2022-08-17T09:21:55.527Z,14.30
2022-08-17T09:27:08.510Z,11.93
2022-08-17T09:32:41.463Z,13.15
2022-08-17T09:37:55.299Z,13.85
2022-08-17T09:43:34.830Z,11.48
2022-08-17T09:48:52.108Z,14.65
2022-08-17T09:54:09.681Z,8.93
2022-08-17T09:59:39.643Z,6.35
2022-08-17T10:05:08.244Z,10.82
2022-08-17T10:10:39.111Z,11.90
2022-08-17T10:16:23.269Z,11.18
2022-08-17T10:21:47.812Z,10.32
2022-08-17T10:26:57.420Z,9.75
2022-08-17T10:32:10.199Z,11.50
2022-08-17T10:37:51.982Z,11.98
2022-08-17T10:43:06.508Z,11.57
2022-08-17T10:48:31.980Z,11.77
2022-08-17T10:53:43.954Z,13.70
2022-08-17T10:58:57.066Z,12.60
2022-08-17T11:04:07.326Z,13.15
2022-08-17T11:09:36.415Z,11.25
2022-08-17T11:14:59.821Z,10.57
2022-08-17T11:20:20.892Z,12.73
2022-08-17T11:25:57.507Z,10.82
2022-08-17T11:31:38.498Z,11.93
2022-08-17T11:37:22.901Z,13.82
2022-08-17T11:43:25.648Z,16.80
2022-08-17T11:55:44.351Z,18.27
2022-08-17T12:02:37.484Z,20.08
2022-08-17T12:08:07.090Z,18.63
2022-08-17T12:13:18.449Z,13.00
2022-08-17T12:18:30.673Z,16.67
2022-08-17T12:23:53.833Z,17.55
2022-08-17T12:29:35.483Z,20.55
2022-08-17T12:34:46.315Z,19.58
2022-08-17T12:40:01.985Z,20.35
2022-08-17T12:45:10.597Z,21.00
2022-08-17T12:50:28.660Z,23.83
2022-08-17T12:55:40.406Z,25.08
2022-08-17T13:01:10.440Z,26.65
2022-08-17T13:06:28.079Z,25.00
2022-08-17T13:11:33.752Z,27.55
2022-08-17T13:16:40.008Z,27.02
2022-08-17T13:21:52.182Z,26.70
2022-08-17T13:27:11.781Z,25.08
2022-08-17T13:32:37.712Z,24.77
2022-08-17T13:38:02.985Z,22.80
2022-08-17T13:43:09.770Z,19.67
2022-08-17T13:48:25.759Z,18.13
2022-08-17T13:53:45.215Z,15.93
2022-08-17T13:59:10.115Z,15.63
2022-08-17T14:04:25.630Z,11.85
2022-08-17T14:09:43.624Z,9.27
2022-08-17T14:14:52.566Z,13.98
2022-08-17T14:19:59.152Z,15.40
2022-08-17T14:25:14.526Z,17.45
2022-08-17T14:30:21.648Z,15.90
2022-08-17T14:35:29.579Z,18.80
2022-08-17T14:40:36.790Z,15.43
2022-08-17T14:45:42.949Z,18.13
2022-08-17T14:50:49.083Z,20.30
2022-08-17T14:55:54.736Z,17.85
2022-08-17T15:01:01.024Z,15.85
2022-08-17T15:06:07.666Z,16.38
2022-08-17T15:11:21.669Z,14.83
2022-08-17T15:16:28.586Z,17.42
2022-08-17T15:21:35.318Z,14.07
2022-08-17T15:26:42.072Z,13.95
2022-08-17T15:31:51.144Z,16.45
2022-08-17T15:37:37.010Z,15.13
2022-08-17T15:42:43.123Z,13.40
2022-08-17T15:47:49.922Z,14.50
2022-08-17T15:53:17.955Z,16.02
2022-08-17T15:58:32.283Z,15.35
2022-08-17T16:03:59.392Z,14.10
2022-08-17T16:09:06.336Z,14.63
2022-08-17T16:14:13.570Z,15.38
2022-08-17T16:19:23.323Z,15.65
2022-08-17T16:24:28.991Z,17.67
2022-08-17T16:34:39.529Z,16.85
2022-08-17T16:39:45.940Z,15.40
2022-08-17T16:44:51.310Z,15.02
2022-08-17T16:55:06.344Z,11.80
2022-08-17T17:00:14.891Z,13.45
2022-08-17T17:05:39.734Z,12.98
2022-08-17T17:10:52.236Z,13.45
2022-08-17T17:16:23.122Z,14.35
2022-08-17T17:21:44.001Z,12.35
2022-08-17T17:27:20.731Z,11.85
2022-08-17T17:32:47.745Z,11.85
2022-08-17T17:37:58.799Z,11.75
2022-08-17T17:43:34.770Z,12.23
2022-08-17T17:48:33.410Z,11.73
2022-08-17T17:59:41.828Z,13.00
2022-08-17T18:05:03.815Z,13.50
2022-08-17T18:10:57.179Z,16.95
2022-08-17T18:16:04.496Z,19.20
2022-08-17T18:21:18.022Z,21.92
2022-08-17T18:26:49.388Z,22.42
2022-08-17T18:32:19.507Z,23.38
2022-08-17T18:37:42.467Z,27.75
2022-08-17T18:43:05.817Z,25.73
2022-08-17T18:48:55.699Z,22.17
2022-08-17T18:54:22.361Z,21.88
2022-08-17T18:59:41.753Z,20.58
2022-08-17T19:05:05.562Z,19.05
2022-08-17T19:10:26.230Z,17.63
2022-08-17T19:15:45.001Z,19.38
2022-08-17T19:21:37.807Z,17.90
2022-08-17T19:26:50.634Z,16.42
2022-08-17T19:32:00.567Z,14.10
2022-08-17T19:37:22.254Z,13.88
2022-08-17T19:42:51.943Z,13.00
2022-08-17T19:48:21.498Z,12.98
2022-08-17T19:54:06.572Z,13.15
2022-08-17T19:59:35.795Z,14.00
2022-08-17T20:04:47.306Z,13.93
2022-08-17T20:10:10.628Z,14.63
2022-08-17T20:15:37.597Z,14.98
2022-08-17T20:21:20.767Z,15.00
2022-08-17T20:26:42.111Z,12.93
2022-08-17T20:31:59.398Z,21.20
2022-08-17T20:37:16.731Z,17.20
2022-08-17T20:42:25.188Z,12.70
2022-08-17T20:48:07.318Z,11.15
2022-08-17T20:53:16.153Z,12.02
2022-08-17T20:58:29.997Z,10.80
2022-08-17T21:03:49.183Z,11.67
2022-08-17T21:09:19.609Z,11.52
2022-08-17T21:14:39.533Z,11.63
2022-08-17T21:20:12.115Z,12.23
2022-08-17T21:25:50.760Z,20.50
2022-08-17T21:31:04.055Z,29.10
2022-08-17T21:36:18.673Z,18.05
2022-08-17T21:41:28.876Z,13.43
2022-08-17T21:46:40.286Z,12.90
2022-08-17T21:51:51.450Z,14.35
2022-08-17T21:56:57.364Z,13.68
2022-08-17T22:02:11.533Z,12.82
2022-08-17T22:07:17.121Z,15.15
2022-08-17T22:17:37.351Z,15.32
2022-08-17T22:23:07.068Z,14.77
2022-08-17T22:28:14.448Z,15.55
2022-08-17T22:33:41.071Z,15.15
2022-08-17T22:38:46.620Z,16.83
2022-08-17T22:43:53.908Z,17.70
2022-08-17T22:49:01.792Z,18.00
2022-08-17T22:54:39.451Z,14.60
2022-08-17T22:59:50.501Z,15.23
2022-08-17T23:05:15.788Z,16.67
2022-08-17T23:10:22.484Z,21.92
2022-08-17T23:15:34.508Z,36.00
2022-08-17T23:20:48.338Z,31.83
2022-08-17T23:25:53.977Z,38.00
2022-08-17T23:31:00.437Z,34.42
2022-08-17T23:36:06.838Z,29.60
2022-08-17T23:41:20.310Z,39.10
2022-08-17T23:46:28.798Z,39.28
2022-08-17T23:51:39.756Z,38.00
2022-08-17T23:56:51.267Z,41.13
